sensor_id;sensor_type;location;lat;lon;timestamp;P1;durP1;ratioP1;P2;durP2;ratioP2
58898;SDS011;44680;48.342;7.856;2023-04-25T00:00:34;8.88;;;4.70;;
58898;SDS011;44680;48.342;7.856;2023-04-25T00:02:59;11.90;;;4.97;;
58898;SDS011;44680;48.342;7.856;2023-04-25T00:05:25;10.95;;;5.25;;
58898;SDS011;44680;48.342;7.856;2023-04-25T00:07:51;7.88;;;5.18;;
58898;SDS011;44680;48.342;7.856;2023-04-25T00:10:16;10.73;;;4.82;;
58898;SDS011;44680;48.342;7.856;2023-04-25T00:12:41;13.30;;;4.88;;
58898;SDS011;44680;48.342;7.856;2023-04-25T00:15:07;9.52;;;5.20;;
58898;SDS011;44680;48.342;7.856;2023-04-25T00:17:32;8.50;;;4.97;;
58898;SDS011;44680;48.342;7.856;2023-04-25T00:19:59;8.23;;;4.60;;
58898;SDS011;44680;48.342;7.856;2023-04-25T00:22:25;9.85;;;5.18;;
58898;SDS011;44680;48.342;7.856;2023-04-25T00:24:50;11.98;;;4.78;;
58898;SDS011;44680;48.342;7.856;2023-04-25T00:27:18;7.35;;;4.90;;
58898;SDS011;44680;48.342;7.856;2023-04-25T00:29:43;8.38;;;4.90;;
58898;SDS011;44680;48.342;7.856;2023-04-25T00:32:08;8.90;;;4.90;;
58898;SDS011;44680;48.342;7.856;2023-04-25T00:34:34;12.18;;;5.07;;
58898;SDS011;44680;48.342;7.856;2023-04-25T00:37:00;10.02;;;4.90;;
58898;SDS011;44680;48.342;7.856;2023-04-25T00:39:27;6.93;;;4.85;;
58898;SDS011;44680;48.342;7.856;2023-04-25T00:41:52;10.38;;;4.93;;
58898;SDS011;44680;48.342;7.856;2023-04-25T00:44:19;8.05;;;4.95;;
58898;SDS011;44680;48.342;7.856;2023-04-25T00:46:45;7.88;;;4.82;;
58898;SDS011;44680;48.342;7.856;2023-04-25T00:49:12;6.78;;;4.65;;
58898;SDS011;44680;48.342;7.856;2023-04-25T00:51:40;10.65;;;4.85;;
58898;SDS011;44680;48.342;7.856;2023-04-25T00:54:06;6.40;;;5.10;;
58898;SDS011;44680;48.342;7.856;2023-04-25T00:56:31;9.40;;;4.97;;
58898;SDS011;44680;48.342;7.856;2023-04-25T00:58:56;11.88;;;5.30;;
58898;SDS011;44680;48.342;7.856;2023-04-25T01:01:22;8.02;;;4.47;;
58898;SDS011;44680;48.342;7.856;2023-04-25T01:03:47;8.63;;;5.03;;
58898;SDS011;44680;48.342;7.856;2023-04-25T01:06:17;9.25;;;4.50;;
58898;SDS011;44680;48.342;7.856;2023-04-25T01:08:42;9.85;;;5.07;;
58898;SDS011;44680;48.342;7.856;2023-04-25T01:11:07;9.43;;;5.32;;
58898;SDS011;44680;48.342;7.856;2023-04-25T01:13:33;12.15;;;5.40;;
58898;SDS011;44680;48.342;7.856;2023-04-25T01:15:59;9.35;;;4.70;;
58898;SDS011;44680;48.342;7.856;2023-04-25T01:18:25;10.80;;;4.68;;
58898;SDS011;44680;48.342;7.856;2023-04-25T01:20:51;11.43;;;4.97;;
58898;SDS011;44680;48.342;7.856;2023-04-25T01:23:17;8.30;;;5.10;;
58898;SDS011;44680;48.342;7.856;2023-04-25T01:25:43;7.55;;;4.80;;
58898;SDS011;44680;48.342;7.856;2023-04-25T01:28:09;7.13;;;4.50;;
58898;SDS011;44680;48.342;7.856;2023-04-25T01:30:34;8.25;;;4.82;;
58898;SDS011;44680;48.342;7.856;2023-04-25T01:33:00;8.23;;;4.78;;
58898;SDS011;44680;48.342;7.856;2023-04-25T01:35:26;7.63;;;4.40;;
58898;SDS011;44680;48.342;7.856;2023-04-25T01:37:51;9.75;;;4.82;;
58898;SDS011;44680;48.342;7.856;2023-04-25T01:40:17;6.65;;;5.07;;
58898;SDS011;44680;48.342;7.856;2023-04-25T01:42:43;13.27;;;5.13;;
58898;SDS011;44680;48.342;7.856;2023-04-25T01:45:09;8.35;;;4.63;;
58898;SDS011;44680;48.342;7.856;2023-04-25T01:47:36;6.70;;;4.63;;
58898;SDS011;44680;48.342;7.856;2023-04-25T01:50:02;8.48;;;4.80;;
58898;SDS011;44680;48.342;7.856;2023-04-25T01:52:28;9.43;;;5.13;;
58898;SDS011;44680;48.342;7.856;2023-04-25T01:54:53;6.78;;;4.30;;
58898;SDS011;44680;48.342;7.856;2023-04-25T01:57:19;6.75;;;4.75;;
58898;SDS011;44680;48.342;7.856;2023-04-25T01:59:45;10.88;;;4.68;;
58898;SDS011;44680;48.342;7.856;2023-04-25T02:02:10;9.18;;;4.78;;
58898;SDS011;44680;48.342;7.856;2023-04-25T02:04:36;11.93;;;4.68;;
58898;SDS011;44680;48.342;7.856;2023-04-25T02:07:01;8.40;;;4.50;;
58898;SDS011;44680;48.342;7.856;2023-04-25T02:09:26;8.30;;;4.90;;
58898;SDS011;44680;48.342;7.856;2023-04-25T02:11:52;8.80;;;4.65;;
58898;SDS011;44680;48.342;7.856;2023-04-25T02:14:17;13.05;;;5.22;;
58898;SDS011;44680;48.342;7.856;2023-04-25T02:16:43;9.38;;;4.57;;
58898;SDS011;44680;48.342;7.856;2023-04-25T02:19:11;14.10;;;5.20;;
58898;SDS011;44680;48.342;7.856;2023-04-25T02:21:36;8.95;;;4.63;;
58898;SDS011;44680;48.342;7.856;2023-04-25T02:24:02;8.38;;;4.50;;
58898;SDS011;44680;48.342;7.856;2023-04-25T02:26:28;7.20;;;4.47;;
58898;SDS011;44680;48.342;7.856;2023-04-25T02:28:53;10.23;;;4.60;;
58898;SDS011;44680;48.342;7.856;2023-04-25T02:31:18;6.75;;;4.50;;
58898;SDS011;44680;48.342;7.856;2023-04-25T02:33:44;7.20;;;4.53;;
58898;SDS011;44680;48.342;7.856;2023-04-25T02:36:09;10.57;;;4.78;;
58898;SDS011;44680;48.342;7.856;2023-04-25T02:38:35;9.48;;;4.63;;
58898;SDS011;44680;48.342;7.856;2023-04-25T02:41:00;8.05;;;4.80;;
58898;SDS011;44680;48.342;7.856;2023-04-25T02:43:29;9.75;;;4.95;;
58898;SDS011;44680;48.342;7.856;2023-04-25T02:45:54;9.38;;;4.97;;
58898;SDS011;44680;48.342;7.856;2023-04-25T02:48:20;10.82;;;4.72;;
58898;SDS011;44680;48.342;7.856;2023-04-25T02:50:45;8.95;;;4.53;;
58898;SDS011;44680;48.342;7.856;2023-04-25T02:53:10;9.40;;;4.78;;
58898;SDS011;44680;48.342;7.856;2023-04-25T02:55:36;7.30;;;4.55;;
58898;SDS011;44680;48.342;7.856;2023-04-25T02:58:01;9.15;;;5.22;;
58898;SDS011;44680;48.342;7.856;2023-04-25T03:00:26;11.80;;;4.80;;
58898;SDS011;44680;48.342;7.856;2023-04-25T03:02:52;8.38;;;4.32;;
58898;SDS011;44680;48.342;7.856;2023-04-25T03:05:18;5.18;;;4.50;;
58898;SDS011;44680;48.342;7.856;2023-04-25T03:07:44;7.80;;;4.35;;
58898;SDS011;44680;48.342;7.856;2023-04-25T03:10:10;8.48;;;4.60;;
58898;SDS011;44680;48.342;7.856;2023-04-25T03:12:36;11.70;;;5.10;;
58898;SDS011;44680;48.342;7.856;2023-04-25T03:15:02;10.93;;;5.40;;
58898;SDS011;44680;48.342;7.856;2023-04-25T03:17:27;11.15;;;5.28;;
58898;SDS011;44680;48.342;7.856;2023-04-25T03:19:52;11.40;;;4.93;;
58898;SDS011;44680;48.342;7.856;2023-04-25T03:22:18;9.93;;;5.30;;
58898;SDS011;44680;48.342;7.856;2023-04-25T03:24:43;8.93;;;5.38;;
58898;SDS011;44680;48.342;7.856;2023-04-25T03:27:08;5.93;;;4.78;;
58898;SDS011;44680;48.342;7.856;2023-04-25T03:29:34;10.07;;;5.05;;
58898;SDS011;44680;48.342;7.856;2023-04-25T03:31:59;12.48;;;5.07;;
58898;SDS011;44680;48.342;7.856;2023-04-25T03:34:24;11.30;;;5.28;;
58898;SDS011;44680;48.342;7.856;2023-04-25T03:36:50;11.60;;;5.70;;
58898;SDS011;44680;48.342;7.856;2023-04-25T03:39:16;8.75;;;5.57;;
58898;SDS011;44680;48.342;7.856;2023-04-25T03:41:41;9.27;;;5.13;;
58898;SDS011;44680;48.342;7.856;2023-04-25T03:44:06;9.80;;;5.10;;
58898;SDS011;44680;48.342;7.856;2023-04-25T03:46:32;9.48;;;5.45;;
58898;SDS011;44680;48.342;7.856;2023-04-25T03:48:57;10.52;;;5.28;;
58898;SDS011;44680;48.342;7.856;2023-04-25T03:51:24;12.50;;;5.03;;
58898;SDS011;44680;48.342;7.856;2023-04-25T03:53:50;10.07;;;5.03;;
58898;SDS011;44680;48.342;7.856;2023-04-25T03:56:16;11.73;;;5.20;;
58898;SDS011;44680;48.342;7.856;2023-04-25T03:58:41;9.30;;;5.20;;
58898;SDS011;44680;48.342;7.856;2023-04-25T04:01:07;9.93;;;5.22;;
58898;SDS011;44680;48.342;7.856;2023-04-25T04:03:35;6.10;;;4.90;;
58898;SDS011;44680;48.342;7.856;2023-04-25T04:06:04;8.88;;;5.10;;
58898;SDS011;44680;48.342;7.856;2023-04-25T04:08:30;11.50;;;5.55;;
58898;SDS011;44680;48.342;7.856;2023-04-25T04:10:56;9.10;;;5.03;;
58898;SDS011;44680;48.342;7.856;2023-04-25T04:13:22;10.30;;;5.40;;
58898;SDS011;44680;48.342;7.856;2023-04-25T04:15:47;12.30;;;5.10;;
58898;SDS011;44680;48.342;7.856;2023-04-25T04:18:13;9.40;;;5.25;;
58898;SDS011;44680;48.342;7.856;2023-04-25T04:20:38;10.20;;;5.40;;
58898;SDS011;44680;48.342;7.856;2023-04-25T04:23:04;8.38;;;4.93;;
58898;SDS011;44680;48.342;7.856;2023-04-25T04:25:30;11.90;;;5.40;;
58898;SDS011;44680;48.342;7.856;2023-04-25T04:27:55;11.05;;;5.57;;
58898;SDS011;44680;48.342;7.856;2023-04-25T04:30:21;8.10;;;5.47;;
58898;SDS011;44680;48.342;7.856;2023-04-25T04:32:48;11.93;;;5.45;;
58898;SDS011;44680;48.342;7.856;2023-04-25T04:35:14;15.48;;;5.47;;
58898;SDS011;44680;48.342;7.856;2023-04-25T04:37:39;14.85;;;6.25;;
58898;SDS011;44680;48.342;7.856;2023-04-25T04:40:05;8.82;;;5.07;;
58898;SDS011;44680;48.342;7.856;2023-04-25T04:42:31;8.95;;;5.15;;
58898;SDS011;44680;48.342;7.856;2023-04-25T04:44:57;10.63;;;5.43;;
58898;SDS011;44680;48.342;7.856;2023-04-25T04:47:23;10.70;;;5.25;;
58898;SDS011;44680;48.342;7.856;2023-04-25T04:49:49;15.23;;;5.85;;
58898;SDS011;44680;48.342;7.856;2023-04-25T04:52:14;13.00;;;5.63;;
58898;SDS011;44680;48.342;7.856;2023-04-25T04:54:39;7.20;;;4.88;;
58898;SDS011;44680;48.342;7.856;2023-04-25T04:57:05;11.60;;;5.45;;
58898;SDS011;44680;48.342;7.856;2023-04-25T04:59:30;10.70;;;5.28;;
58898;SDS011;44680;48.342;7.856;2023-04-25T05:01:55;9.95;;;5.53;;
58898;SDS011;44680;48.342;7.856;2023-04-25T05:04:20;9.93;;;5.10;;
58898;SDS011;44680;48.342;7.856;2023-04-25T05:06:46;11.57;;;5.35;;
58898;SDS011;44680;48.342;7.856;2023-04-25T05:09:11;7.82;;;5.15;;
58898;SDS011;44680;48.342;7.856;2023-04-25T05:11:36;8.68;;;5.95;;
58898;SDS011;44680;48.342;7.856;2023-04-25T05:14:02;11.80;;;5.60;;
58898;SDS011;44680;48.342;7.856;2023-04-25T05:16:27;11.27;;;5.28;;
58898;SDS011;44680;48.342;7.856;2023-04-25T05:18:52;8.23;;;5.32;;
58898;SDS011;44680;48.342;7.856;2023-04-25T05:21:18;11.93;;;5.57;;
58898;SDS011;44680;48.342;7.856;2023-04-25T05:23:43;10.15;;;5.45;;
58898;SDS011;44680;48.342;7.856;2023-04-25T05:26:08;13.15;;;5.60;;
58898;SDS011;44680;48.342;7.856;2023-04-25T05:28:39;10.07;;;5.43;;
58898;SDS011;44680;48.342;7.856;2023-04-25T05:31:05;9.77;;;5.30;;
58898;SDS011;44680;48.342;7.856;2023-04-25T05:33:31;8.95;;;5.60;;
58898;SDS011;44680;48.342;7.856;2023-04-25T05:35:56;11.48;;;5.05;;
58898;SDS011;44680;48.342;7.856;2023-04-25T05:38:22;11.50;;;5.75;;
58898;SDS011;44680;48.342;7.856;2023-04-25T05:40:47;10.60;;;5.95;;
58898;SDS011;44680;48.342;7.856;2023-04-25T05:43:12;10.43;;;6.00;;
58898;SDS011;44680;48.342;7.856;2023-04-25T05:45:38;10.68;;;6.13;;
58898;SDS011;44680;48.342;7.856;2023-04-25T05:48:03;9.25;;;5.68;;
58898;SDS011;44680;48.342;7.856;2023-04-25T05:50:28;13.65;;;6.45;;
58898;SDS011;44680;48.342;7.856;2023-04-25T05:52:53;11.52;;;6.20;;
58898;SDS011;44680;48.342;7.856;2023-04-25T05:55:19;9.77;;;5.75;;
58898;SDS011;44680;48.342;7.856;2023-04-25T05:57:44;9.00;;;6.20;;
58898;SDS011;44680;48.342;7.856;2023-04-25T06:00:11;12.63;;;6.25;;
58898;SDS011;44680;48.342;7.856;2023-04-25T06:02:37;11.68;;;5.95;;
58898;SDS011;44680;48.342;7.856;2023-04-25T06:05:02;10.00;;;5.68;;
58898;SDS011;44680;48.342;7.856;2023-04-25T06:07:28;9.30;;;5.60;;
58898;SDS011;44680;48.342;7.856;2023-04-25T06:09:54;7.68;;;5.28;;
58898;SDS011;44680;48.342;7.856;2023-04-25T06:12:20;9.57;;;5.15;;
58898;SDS011;44680;48.342;7.856;2023-04-25T06:14:45;12.90;;;6.68;;
58898;SDS011;44680;48.342;7.856;2023-04-25T06:17:10;12.68;;;6.25;;
58898;SDS011;44680;48.342;7.856;2023-04-25T06:19:36;9.63;;;5.22;;
58898;SDS011;44680;48.342;7.856;2023-04-25T06:22:01;10.95;;;5.65;;
58898;SDS011;44680;48.342;7.856;2023-04-25T06:24:27;10.25;;;6.22;;
58898;SDS011;44680;48.342;7.856;2023-04-25T06:26:52;9.80;;;5.93;;
58898;SDS011;44680;48.342;7.856;2023-04-25T06:29:17;12.95;;;5.63;;
58898;SDS011;44680;48.342;7.856;2023-04-25T06:31:43;9.52;;;5.47;;
58898;SDS011;44680;48.342;7.856;2023-04-25T06:34:08;10.02;;;4.88;;
58898;SDS011;44680;48.342;7.856;2023-04-25T06:36:33;8.40;;;4.45;;
58898;SDS011;44680;48.342;7.856;2023-04-25T06:38:59;9.30;;;4.78;;
58898;SDS011;44680;48.342;7.856;2023-04-25T06:41:24;8.85;;;5.47;;
58898;SDS011;44680;48.342;7.856;2023-04-25T06:43:49;9.10;;;5.13;;
58898;SDS011;44680;48.342;7.856;2023-04-25T06:46:15;10.20;;;4.70;;
58898;SDS011;44680;48.342;7.856;2023-04-25T06:48:40;7.03;;;5.03;;
58898;SDS011;44680;48.342;7.856;2023-04-25T06:51:05;10.35;;;4.38;;
58898;SDS011;44680;48.342;7.856;2023-04-25T06:53:31;8.43;;;4.15;;
58898;SDS011;44680;48.342;7.856;2023-04-25T06:55:56;8.13;;;4.40;;
58898;SDS011;44680;48.342;7.856;2023-04-25T06:58:21;5.85;;;4.50;;
58898;SDS011;44680;48.342;7.856;2023-04-25T07:00:47;6.60;;;4.10;;
58898;SDS011;44680;48.342;7.856;2023-04-25T07:03:12;8.75;;;3.75;;
58898;SDS011;44680;48.342;7.856;2023-04-25T07:05:38;7.35;;;3.58;;
58898;SDS011;44680;48.342;7.856;2023-04-25T07:08:03;6.78;;;3.85;;
58898;SDS011;44680;48.342;7.856;2023-04-25T07:10:28;4.00;;;3.60;;
58898;SDS011;44680;48.342;7.856;2023-04-25T07:12:54;4.80;;;3.00;;
58898;SDS011;44680;48.342;7.856;2023-04-25T07:15:19;4.13;;;3.15;;
58898;SDS011;44680;48.342;7.856;2023-04-25T07:17:44;3.90;;;3.60;;
58898;SDS011;44680;48.342;7.856;2023-04-25T07:20:10;3.75;;;3.38;;
58898;SDS011;44680;48.342;7.856;2023-04-25T07:22:35;4.35;;;3.78;;
58898;SDS011;44680;48.342;7.856;2023-04-25T07:25:01;6.68;;;4.45;;
58898;SDS011;44680;48.342;7.856;2023-04-25T07:27:26;5.22;;;4.10;;
58898;SDS011;44680;48.342;7.856;2023-04-25T07:29:52;6.45;;;4.20;;
58898;SDS011;44680;48.342;7.856;2023-04-25T07:32:17;5.80;;;3.85;;
58898;SDS011;44680;48.342;7.856;2023-04-25T07:34:43;4.80;;;3.72;;
58898;SDS011;44680;48.342;7.856;2023-04-25T07:37:08;4.43;;;3.50;;
58898;SDS011;44680;48.342;7.856;2023-04-25T07:39:33;5.85;;;3.40;;
58898;SDS011;44680;48.342;7.856;2023-04-25T07:42:00;4.40;;;3.60;;
58898;SDS011;44680;48.342;7.856;2023-04-25T07:44:25;5.45;;;3.85;;
58898;SDS011;44680;48.342;7.856;2023-04-25T07:46:50;5.15;;;3.75;;
58898;SDS011;44680;48.342;7.856;2023-04-25T07:49:16;5.25;;;3.83;;
58898;SDS011;44680;48.342;7.856;2023-04-25T07:51:41;5.93;;;3.92;;
58898;SDS011;44680;48.342;7.856;2023-04-25T07:54:08;4.35;;;3.90;;
58898;SDS011;44680;48.342;7.856;2023-04-25T07:56:38;9.00;;;3.97;;
58898;SDS011;44680;48.342;7.856;2023-04-25T07:59:03;4.90;;;4.30;;
58898;SDS011;44680;48.342;7.856;2023-04-25T08:01:29;9.80;;;4.45;;
58898;SDS011;44680;48.342;7.856;2023-04-25T08:03:54;6.03;;;3.50;;
58898;SDS011;44680;48.342;7.856;2023-04-25T08:06:19;6.28;;;4.00;;
58898;SDS011;44680;48.342;7.856;2023-04-25T08:08:45;4.60;;;3.60;;
58898;SDS011;44680;48.342;7.856;2023-04-25T08:11:10;3.92;;;3.05;;
58898;SDS011;44680;48.342;7.856;2023-04-25T08:13:35;3.03;;;2.72;;
58898;SDS011;44680;48.342;7.856;2023-04-25T08:16:01;2.92;;;2.58;;
58898;SDS011;44680;48.342;7.856;2023-04-25T08:18:26;3.28;;;2.97;;
58898;SDS011;44680;48.342;7.856;2023-04-25T08:20:51;2.88;;;2.63;;
58898;SDS011;44680;48.342;7.856;2023-04-25T08:23:17;3.20;;;3.00;;
58898;SDS011;44680;48.342;7.856;2023-04-25T08:25:42;2.88;;;2.67;;
58898;SDS011;44680;48.342;7.856;2023-04-25T08:28:07;3.38;;;3.13;;
58898;SDS011;44680;48.342;7.856;2023-04-25T08:30:33;4.07;;;2.85;;
58898;SDS011;44680;48.342;7.856;2023-04-25T08:32:58;6.50;;;3.10;;
58898;SDS011;44680;48.342;7.856;2023-04-25T08:35:23;3.83;;;3.45;;
58898;SDS011;44680;48.342;7.856;2023-04-25T08:37:49;3.72;;;2.85;;
58898;SDS011;44680;48.342;7.856;2023-04-25T08:40:14;2.58;;;2.38;;
58898;SDS011;44680;48.342;7.856;2023-04-25T08:42:43;2.90;;;2.70;;
58898;SDS011;44680;48.342;7.856;2023-04-25T08:45:09;3.80;;;2.63;;
58898;SDS011;44680;48.342;7.856;2023-04-25T08:47:35;2.50;;;2.30;;
58898;SDS011;44680;48.342;7.856;2023-04-25T08:50:03;2.72;;;2.53;;
58898;SDS011;44680;48.342;7.856;2023-04-25T08:52:32;3.45;;;2.50;;
58898;SDS011;44680;48.342;7.856;2023-04-25T08:55:01;3.10;;;2.90;;
58898;SDS011;44680;48.342;7.856;2023-04-25T08:57:27;3.03;;;2.83;;
58898;SDS011;44680;48.342;7.856;2023-04-25T08:59:54;3.10;;;2.90;;
58898;SDS011;44680;48.342;7.856;2023-04-25T09:02:20;3.50;;;3.20;;
58898;SDS011;44680;48.342;7.856;2023-04-25T09:04:45;3.63;;;3.42;;
58898;SDS011;44680;48.342;7.856;2023-04-25T09:07:11;5.53;;;3.40;;
58898;SDS011;44680;48.342;7.856;2023-04-25T09:09:36;3.50;;;3.00;;
58898;SDS011;44680;48.342;7.856;2023-04-25T09:12:01;2.97;;;2.78;;
58898;SDS011;44680;48.342;7.856;2023-04-25T09:14:27;3.05;;;2.65;;
58898;SDS011;44680;48.342;7.856;2023-04-25T09:19:24;2.53;;;2.33;;
58898;SDS011;44680;48.342;7.856;2023-04-25T09:21:55;2.53;;;2.42;;
58898;SDS011;44680;48.342;7.856;2023-04-25T09:26:59;2.38;;;1.90;;
58898;SDS011;44680;48.342;7.856;2023-04-25T09:29:33;2.97;;;2.15;;
58898;SDS011;44680;48.342;7.856;2023-04-25T09:34:46;1.67;;;1.67;;
58898;SDS011;44680;48.342;7.856;2023-04-25T09:37:24;6.53;;;3.50;;
58898;SDS011;44680;48.342;7.856;2023-04-25T09:39:53;3.95;;;2.35;;
58898;SDS011;44680;48.342;7.856;2023-04-25T09:42:21;2.30;;;2.10;;
58898;SDS011;44680;48.342;7.856;2023-04-25T09:44:47;2.30;;;2.10;;
58898;SDS011;44680;48.342;7.856;2023-04-25T09:47:13;2.03;;;1.92;;
58898;SDS011;44680;48.342;7.856;2023-04-25T09:49:40;4.43;;;2.38;;
58898;SDS011;44680;48.342;7.856;2023-04-25T09:52:07;4.97;;;2.58;;
58898;SDS011;44680;48.342;7.856;2023-04-25T09:54:32;3.38;;;2.60;;
58898;SDS011;44680;48.342;7.856;2023-04-25T09:56:58;2.80;;;2.60;;
58898;SDS011;44680;48.342;7.856;2023-04-25T09:59:36;4.45;;;3.10;;
58898;SDS011;44680;48.342;7.856;2023-04-25T10:02:03;7.07;;;2.10;;
58898;SDS011;44680;48.342;7.856;2023-04-25T10:04:29;2.80;;;2.60;;
58898;SDS011;44680;48.342;7.856;2023-04-25T10:06:56;3.03;;;2.63;;
58898;SDS011;44680;48.342;7.856;2023-04-25T10:09:24;2.97;;;2.67;;
58898;SDS011;44680;48.342;7.856;2023-04-25T10:11:50;2.90;;;2.30;;
58898;SDS011;44680;48.342;7.856;2023-04-25T10:14:16;2.92;;;2.67;;
58898;SDS011;44680;48.342;7.856;2023-04-25T10:16:43;2.53;;;2.42;;
58898;SDS011;44680;48.342;7.856;2023-04-25T10:19:09;2.20;;;2.10;;
58898;SDS011;44680;48.342;7.856;2023-04-25T10:21:35;2.33;;;2.22;;
58898;SDS011;44680;48.342;7.856;2023-04-25T10:24:05;2.28;;;2.17;;
58898;SDS011;44680;48.342;7.856;2023-04-25T10:26:31;2.28;;;2.17;;
58898;SDS011;44680;48.342;7.856;2023-04-25T10:31:23;3.00;;;2.70;;
58898;SDS011;44680;48.342;7.856;2023-04-25T10:33:48;2.95;;;2.40;;
58898;SDS011;44680;48.342;7.856;2023-04-25T10:36:18;3.05;;;2.35;;
58898;SDS011;44680;48.342;7.856;2023-04-25T10:38:45;2.80;;;2.60;;
58898;SDS011;44680;48.342;7.856;2023-04-25T10:41:11;2.97;;;2.70;;
58898;SDS011;44680;48.342;7.856;2023-04-25T10:43:38;2.45;;;2.35;;
58898;SDS011;44680;48.342;7.856;2023-04-25T10:48:52;4.93;;;3.38;;
58898;SDS011;44680;48.342;7.856;2023-04-25T10:51:25;4.40;;;3.40;;
58898;SDS011;44680;48.342;7.856;2023-04-25T10:56:21;3.88;;;3.47;;
58898;SDS011;44680;48.342;7.856;2023-04-25T10:58:47;3.42;;;3.10;;
58898;SDS011;44680;48.342;7.856;2023-04-25T11:01:13;3.22;;;2.92;;
58898;SDS011;44680;48.342;7.856;2023-04-25T11:03:40;4.07;;;3.42;;
58898;SDS011;44680;48.342;7.856;2023-04-25T11:06:08;4.15;;;3.63;;
58898;SDS011;44680;48.342;7.856;2023-04-25T11:08:49;3.80;;;3.50;;
58898;SDS011;44680;48.342;7.856;2023-04-25T11:11:18;5.30;;;3.63;;
58898;SDS011;44680;48.342;7.856;2023-04-25T11:13:47;4.22;;;3.55;;
58898;SDS011;44680;48.342;7.856;2023-04-25T11:16:13;6.07;;;3.92;;
58898;SDS011;44680;48.342;7.856;2023-04-25T11:18:40;4.13;;;3.75;;
58898;SDS011;44680;48.342;7.856;2023-04-25T11:21:06;3.67;;;3.38;;
58898;SDS011;44680;48.342;7.856;2023-04-25T11:23:32;3.50;;;3.30;;
58898;SDS011;44680;48.342;7.856;2023-04-25T11:25:57;6.90;;;3.83;;
58898;SDS011;44680;48.342;7.856;2023-04-25T11:28:22;3.80;;;3.40;;
58898;SDS011;44680;48.342;7.856;2023-04-25T11:30:51;5.03;;;4.00;;
58898;SDS011;44680;48.342;7.856;2023-04-25T11:33:16;4.05;;;3.65;;
58898;SDS011;44680;48.342;7.856;2023-04-25T11:35:42;4.00;;;2.80;;
58898;SDS011;44680;48.342;7.856;2023-04-25T11:38:07;2.67;;;2.47;;
58898;SDS011;44680;48.342;7.856;2023-04-25T11:40:33;2.58;;;2.40;;
58898;SDS011;44680;48.342;7.856;2023-04-25T11:43:00;3.47;;;2.30;;
58898;SDS011;44680;48.342;7.856;2023-04-25T11:45:26;4.55;;;2.55;;
58898;SDS011;44680;48.342;7.856;2023-04-25T11:47:51;2.40;;;2.28;;
58898;SDS011;44680;48.342;7.856;2023-04-25T11:50:17;2.72;;;2.63;;
58898;SDS011;44680;48.342;7.856;2023-04-25T11:52:43;3.00;;;2.70;;
58898;SDS011;44680;48.342;7.856;2023-04-25T11:55:15;3.03;;;2.55;;
58898;SDS011;44680;48.342;7.856;2023-04-25T11:57:42;3.08;;;2.88;;
58898;SDS011;44680;48.342;7.856;2023-04-25T12:00:09;4.18;;;2.55;;
58898;SDS011;44680;48.342;7.856;2023-04-25T12:02:52;3.05;;;2.80;;
58898;SDS011;44680;48.342;7.856;2023-04-25T12:05:18;3.00;;;2.80;;
58898;SDS011;44680;48.342;7.856;2023-04-25T12:07:45;2.88;;;2.50;;
58898;SDS011;44680;48.342;7.856;2023-04-25T12:10:12;2.67;;;2.47;;
58898;SDS011;44680;48.342;7.856;2023-04-25T12:12:38;2.90;;;2.70;;
58898;SDS011;44680;48.342;7.856;2023-04-25T12:17:40;2.60;;;2.40;;
58898;SDS011;44680;48.342;7.856;2023-04-25T12:20:09;4.60;;;2.58;;
58898;SDS011;44680;48.342;7.856;2023-04-25T12:22:35;5.13;;;3.03;;
58898;SDS011;44680;48.342;7.856;2023-04-25T12:25:01;3.42;;;2.97;;
58898;SDS011;44680;48.342;7.856;2023-04-25T12:27:30;4.65;;;2.35;;
58898;SDS011;44680;48.342;7.856;2023-04-25T12:29:56;3.35;;;2.10;;
58898;SDS011;44680;48.342;7.856;2023-04-25T12:32:22;2.58;;;2.38;;
58898;SDS011;44680;48.342;7.856;2023-04-25T12:34:47;2.10;;;1.90;;
58898;SDS011;44680;48.342;7.856;2023-04-25T12:37:13;1.85;;;1.75;;
58898;SDS011;44680;48.342;7.856;2023-04-25T12:39:38;3.42;;;3.13;;
58898;SDS011;44680;48.342;7.856;2023-04-25T12:42:04;1.80;;;1.80;;
58898;SDS011;44680;48.342;7.856;2023-04-25T12:44:29;2.20;;;2.10;;
58898;SDS011;44680;48.342;7.856;2023-04-25T12:46:54;2.30;;;2.10;;
58898;SDS011;44680;48.342;7.856;2023-04-25T12:49:20;2.22;;;2.13;;
58898;SDS011;44680;48.342;7.856;2023-04-25T12:51:45;3.95;;;2.67;;
58898;SDS011;44680;48.342;7.856;2023-04-25T12:54:11;2.30;;;2.20;;
58898;SDS011;44680;48.342;7.856;2023-04-25T12:56:37;2.50;;;2.30;;
58898;SDS011;44680;48.342;7.856;2023-04-25T12:59:02;5.90;;;2.60;;
58898;SDS011;44680;48.342;7.856;2023-04-25T13:01:28;3.40;;;2.47;;
58898;SDS011;44680;48.342;7.856;2023-04-25T13:03:54;2.65;;;2.45;;
58898;SDS011;44680;48.342;7.856;2023-04-25T13:06:19;2.85;;;2.65;;
58898;SDS011;44680;48.342;7.856;2023-04-25T13:08:45;4.93;;;2.70;;
58898;SDS011;44680;48.342;7.856;2023-04-25T13:11:11;3.33;;;3.03;;
58898;SDS011;44680;48.342;7.856;2023-04-25T13:13:36;3.45;;;3.13;;
58898;SDS011;44680;48.342;7.856;2023-04-25T13:16:02;3.78;;;3.22;;
58898;SDS011;44680;48.342;7.856;2023-04-25T13:18:29;3.50;;;3.20;;
58898;SDS011;44680;48.342;7.856;2023-04-25T13:20:54;7.30;;;3.55;;
58898;SDS011;44680;48.342;7.856;2023-04-25T13:23:20;7.93;;;3.60;;
58898;SDS011;44680;48.342;7.856;2023-04-25T13:25:45;8.10;;;3.90;;
58898;SDS011;44680;48.342;7.856;2023-04-25T13:28:11;4.35;;;3.50;;
58898;SDS011;44680;48.342;7.856;2023-04-25T13:30:36;6.32;;;3.90;;
58898;SDS011;44680;48.342;7.856;2023-04-25T13:33:02;5.28;;;4.00;;
58898;SDS011;44680;48.342;7.856;2023-04-25T13:35:28;6.60;;;4.00;;
58898;SDS011;44680;48.342;7.856;2023-04-25T13:37:54;6.90;;;3.85;;
58898;SDS011;44680;48.342;7.856;2023-04-25T13:40:20;5.50;;;3.72;;
58898;SDS011;44680;48.342;7.856;2023-04-25T13:42:45;7.10;;;4.13;;
58898;SDS011;44680;48.342;7.856;2023-04-25T13:45:11;7.25;;;4.53;;
58898;SDS011;44680;48.342;7.856;2023-04-25T13:47:36;7.13;;;4.32;;
58898;SDS011;44680;48.342;7.856;2023-04-25T13:50:02;5.65;;;4.80;;
58898;SDS011;44680;48.342;7.856;2023-04-25T13:52:28;5.72;;;4.28;;
58898;SDS011;44680;48.342;7.856;2023-04-25T13:54:54;4.95;;;4.00;;
58898;SDS011;44680;48.342;7.856;2023-04-25T13:57:19;3.58;;;3.25;;
58898;SDS011;44680;48.342;7.856;2023-04-25T13:59:45;4.65;;;3.33;;
58898;SDS011;44680;48.342;7.856;2023-04-25T14:02:11;3.60;;;2.80;;
58898;SDS011;44680;48.342;7.856;2023-04-25T14:04:37;2.42;;;2.28;;
58898;SDS011;44680;48.342;7.856;2023-04-25T14:07:02;2.10;;;2.00;;
58898;SDS011;44680;48.342;7.856;2023-04-25T14:09:28;2.72;;;2.53;;
58898;SDS011;44680;48.342;7.856;2023-04-25T14:11:54;2.08;;;1.98;;
58898;SDS011;44680;48.342;7.856;2023-04-25T14:14:20;2.42;;;2.33;;
58898;SDS011;44680;48.342;7.856;2023-04-25T14:16:48;2.95;;;2.70;;
58898;SDS011;44680;48.342;7.856;2023-04-25T14:19:15;5.28;;;2.85;;
58898;SDS011;44680;48.342;7.856;2023-04-25T14:21:40;4.57;;;2.75;;
58898;SDS011;44680;48.342;7.856;2023-04-25T14:24:06;2.92;;;2.72;;
58898;SDS011;44680;48.342;7.856;2023-04-25T14:26:32;4.80;;;2.90;;
58898;SDS011;44680;48.342;7.856;2023-04-25T14:28:58;2.78;;;2.58;;
58898;SDS011;44680;48.342;7.856;2023-04-25T14:31:23;2.90;;;2.70;;
58898;SDS011;44680;48.342;7.856;2023-04-25T14:33:49;4.38;;;3.42;;
58898;SDS011;44680;48.342;7.856;2023-04-25T14:36:15;2.55;;;2.45;;
58898;SDS011;44680;48.342;7.856;2023-04-25T14:38:40;5.13;;;3.42;;
58898;SDS011;44680;48.342;7.856;2023-04-25T14:41:05;3.42;;;3.13;;
58898;SDS011;44680;48.342;7.856;2023-04-25T14:43:31;4.82;;;3.42;;
58898;SDS011;44680;48.342;7.856;2023-04-25T14:45:56;5.85;;;3.92;;
58898;SDS011;44680;48.342;7.856;2023-04-25T14:48:21;7.68;;;4.18;;
58898;SDS011;44680;48.342;7.856;2023-04-25T14:50:47;3.45;;;3.15;;
58898;SDS011;44680;48.342;7.856;2023-04-25T14:53:13;4.00;;;3.60;;
58898;SDS011;44680;48.342;7.856;2023-04-25T14:55:38;6.93;;;3.65;;